Time;durP1;ratioP1;P1;durP2;ratioP2;P2;SDS_P1;SDS_P2;PMS_P1;PMS_P2;Temp;Humidity;BMP_temperature;BMP_pressure;BME280_temperature;BME280_humidity;BME280_pressure;Samples;Min_cycle;Max_cycle;Signal;HPM_P1;HPM_P2
2023/09/08 00:02:49;;;;;;;11.20;9.30;;;;;;;13.56;77.50;100759.27;220100;1256;141742;-76
2023/09/08 00:07:55;;;;;;;11.20;9.50;;;;;;;13.55;77.38;100757.30;219270;1257;141440;-74
2023/09/08 00:12:59;;;;;;;14.60;8.80;;;;;;;13.55;77.70;100759.61;218627;1257;141132;-76
2023/09/08 00:18:04;;;;;;;10.60;9.20;;;;;;;13.52;77.50;100753.77;217586;1257;140680;-74
2023/09/08 00:23:07;;;;;;;13.40;10.40;;;;;;;13.43;77.17;100751.64;218743;1256;140369;-75
2023/09/08 00:28:10;;;;;;;11.90;9.90;;;;;;;13.36;77.64;100744.45;218491;1256;221076;-75
2023/09/08 00:33:17;;;;;;;10.30;9.20;;;;;;;13.36;77.98;100743.13;217399;1257;141096;-75
2023/09/08 00:38:19;;;;;;;12.40;8.50;;;;;;;13.34;77.84;100738.34;217364;1257;141879;-78
2023/09/08 00:43:22;;;;;;;10.30;9.20;;;;;;;13.27;78.04;100737.36;217332;1257;141328;-78
2023/09/08 00:48:26;;;;;;;10.80;9.30;;;;;;;13.20;78.57;100732.19;217283;1260;141203;-70
2023/09/08 00:53:30;;;;;;;12.00;9.00;;;;;;;13.14;78.11;100732.67;218313;1257;140691;-78
2023/09/08 00:58:33;;;;;;;11.90;8.10;;;;;;;13.04;78.32;100729.88;217927;1257;141819;-77
2023/09/08 01:03:38;;;;;;;10.70;9.50;;;;;;;12.93;78.24;100729.44;217898;1257;141277;-76
2023/09/08 01:08:43;;;;;;;12.80;10.00;;;;;;;12.88;78.68;100732.30;218752;1256;141379;-76
2023/09/08 01:13:47;;;;;;;18.30;10.90;;;;;;;12.88;79.06;100731.60;219681;1256;140663;-73
2023/09/08 01:18:52;;;;;;;10.80;9.70;;;;;;;12.87;78.92;100727.08;217572;1257;141737;-73
2023/09/08 01:23:59;;;;;;;11.20;10.10;;;;;;;12.79;79.20;100726.29;218789;1256;141321;-74
2023/09/08 01:29:05;;;;;;;15.70;9.20;;;;;;;12.77;79.36;100723.15;218279;1257;141946;-74
2023/09/08 01:34:08;;;;;;;14.30;8.70;;;;;;;12.74;79.33;100730.02;218288;1257;140227;-78
2023/09/08 01:39:12;;;;;;;10.70;9.60;;;;;;;12.67;79.35;100723.71;217767;1256;140768;-73
2023/09/08 01:44:15;;;;;;;23.30;10.70;;;;;;;12.67;79.74;100724.95;220562;1256;139833;-74
2023/09/08 01:49:20;;;;;;;10.40;9.30;;;;;;;12.67;79.48;100723.22;220015;1256;143696;-74
2023/09/08 01:54:23;;;;;;;15.00;9.10;;;;;;;12.59;79.33;100717.75;219061;1256;141680;-73
2023/09/08 01:59:25;;;;;;;10.50;9.50;;;;;;;12.56;79.25;100715.57;218346;1256;141206;-81
2023/09/08 02:04:29;;;;;;;11.80;8.80;;;;;;;12.46;79.30;100719.69;217690;1257;140112;-72
2023/09/08 02:09:35;;;;;;;11.70;10.60;;;;;;;12.40;79.85;100712.92;218971;1256;141635;-73
2023/09/08 02:14:37;;;;;;;12.70;10.10;;;;;;;12.37;79.92;100709.73;218993;1256;141506;-77
2023/09/08 02:19:40;;;;;;;11.40;10.30;;;;;;;12.33;79.92;100709.45;218292;1257;141203;-75
2023/09/08 02:24:44;;;;;;;10.80;9.20;;;;;;;12.32;79.94;100706.80;218272;1256;141652;-75
2023/09/08 02:29:46;;;;;;;12.50;10.20;;;;;;;12.24;79.90;100704.79;217623;1257;140519;-75
2023/09/08 02:34:50;;;;;;;11.90;9.90;;;;;;;12.20;80.29;100700.03;217688;1257;140726;-76
2023/09/08 02:39:54;;;;;;;10.00;8.90;;;;;;;12.21;80.19;100697.39;217833;1256;141516;-71
2023/09/08 02:44:56;;;;;;;13.30;10.30;;;;;;;12.19;80.33;100692.23;217613;1257;140707;-71
2023/09/08 02:50:00;;;;;;;11.30;9.60;;;;;;;12.16;80.18;100689.71;218056;1256;141847;-71
2023/09/08 02:55:04;;;;;;;11.20;10.00;;;;;;;12.07;80.16;100688.30;217780;1257;141565;-72
2023/09/08 03:00:07;;;;;;;11.60;10.20;;;;;;;11.96;80.31;100685.29;218404;1257;142391;-70
2023/09/08 03:05:11;;;;;;;15.10;11.40;;;;;;;11.89;80.60;100684.23;217810;1256;143062;-70
2023/09/08 03:10:14;;;;;;;12.70;11.30;;;;;;;11.85;81.12;100682.02;218043;1256;141661;-74
2023/09/08 03:15:16;;;;;;;11.20;10.00;;;;;;;11.86;81.43;100685.03;217733;1257;141342;-70
2023/09/08 03:20:20;;;;;;;15.80;10.20;;;;;;;11.85;81.21;100684.14;218036;1256;142132;-69
2023/09/08 03:25:23;;;;;;;11.30;10.20;;;;;;;11.81;81.35;100681.91;217536;1257;140424;-69
2023/09/08 03:30:27;;;;;;;12.20;10.90;;;;;;;11.81;81.32;100680.55;218457;1256;141699;-69
2023/09/08 03:35:30;;;;;;;11.20;9.50;;;;;;;11.77;81.37;100675.52;219409;1256;161632;-70
2023/09/08 03:40:33;;;;;;;15.00;10.60;;;;;;;11.73;81.62;100677.13;219283;1256;142709;-71
2023/09/08 03:45:36;;;;;;;12.50;11.40;;;;;;;11.72;81.10;100680.63;220464;1256;141294;-76
2023/09/08 03:50:38;;;;;;;12.20;11.10;;;;;;;11.72;81.42;100678.16;220502;1256;141186;-76
2023/09/08 03:55:41;;;;;;;11.00;9.60;;;;;;;11.74;81.10;100676.34;218811;1256;141570;-71
2023/09/08 04:00:44;;;;;;;14.30;10.90;;;;;;;11.73;81.19;100676.84;217537;1257;140590;-71
2023/09/08 04:05:46;;;;;;;12.40;10.50;;;;;;;11.72;81.04;100677.51;217422;1257;140531;-70
2023/09/08 04:10:48;;;;;;;13.40;11.00;;;;;;;11.69;81.17;100680.66;217590;1257;140534;-70
2023/09/08 04:15:51;;;;;;;13.10;9.60;;;;;;;11.65;81.31;100679.09;217574;1256;141085;-69
2023/09/08 04:20:55;;;;;;;15.70;10.90;;;;;;;11.63;81.53;100679.14;217462;1256;143154;-71
2023/09/08 04:26:00;;;;;;;10.80;9.20;;;;;;;11.68;81.98;100675.93;217956;1257;152327;-72
2023/09/08 04:31:04;;;;;;;13.60;10.70;;;;;;;11.68;81.82;100677.41;218395;1256;140210;-72
2023/09/08 04:36:07;;;;;;;13.80;10.80;;;;;;;11.70;81.97;100678.72;217834;1256;141349;-77
2023/09/08 04:41:11;;;;;;;11.60;9.90;;;;;;;11.73;81.85;100672.56;217482;1256;142397;-75
2023/09/08 04:46:15;;;;;;;10.50;9.30;;;;;;;11.75;81.77;100672.36;218128;1260;141781;-73
2023/09/08 04:51:18;;;;;;;13.30;10.80;;;;;;;11.79;82.34;100670.46;217562;1257;140445;-74
2023/09/08 04:56:20;;;;;;;12.10;10.90;;;;;;;11.89;82.98;100670.77;217625;1257;140578;-78
2023/09/08 05:01:23;;;;;;;15.90;10.50;;;;;;;12.04;83.30;100670.36;218635;1260;140516;-77
2023/09/08 05:06:26;;;;;;;12.80;9.30;;;;;;;12.19;83.20;100670.59;217557;1257;142060;-71
2023/09/08 05:11:28;;;;;;;17.60;11.30;;;;;;;12.31;83.26;100671.67;217715;1257;140318;-71
2023/09/08 05:16:44;;;;;;;17.30;10.60;;;;;;;12.47;83.58;100667.18;218681;1259;141346;-71
2023/09/08 05:21:47;;;;;;;24.80;12.70;;;;;;;12.66;83.79;100666.11;217648;1260;140557;-70
2023/09/08 05:26:49;;;;;;;22.50;12.30;;;;;;;12.87;83.96;100666.83;218864;1257;142218;-70
2023/09/08 05:31:52;;;;;;;14.60;13.20;;;;;;;13.09;84.08;100663.34;218729;1260;141311;-70
2023/09/08 05:36:54;;;;;;;13.20;11.80;;;;;;;13.31;84.21;100662.86;217826;1257;141321;-69
2023/09/08 05:41:56;;;;;;;22.70;13.10;;;;;;;13.53;84.51;100664.04;218319;1257;140600;-69
2023/09/08 05:46:59;;;;;;;13.70;12.30;;;;;;;13.74;84.75;100661.33;220171;1256;140831;-69
2023/09/08 05:52:01;;;;;;;16.10;12.80;;;;;;;13.99;84.84;100665.66;220500;1258;141282;-69
2023/09/08 05:57:06;;;;;;;19.90;16.40;;;;;;;14.27;85.03;100667.98;219598;1256;142662;-68
2023/09/08 06:02:09;;;;;;;26.90;16.00;;;;;;;14.57;85.58;100664.48;218113;1256;142575;-68
2023/09/08 06:07:12;;;;;;;15.50;14.20;;;;;;;14.86;86.10;100666.96;220109;1257;141062;-69
2023/09/08 06:12:16;;;;;;;19.30;17.00;;;;;;;15.14;86.32;100669.52;218060;1257;142846;-68
2023/09/08 06:17:20;;;;;;;17.80;16.10;;;;;;;15.46;86.82;100671.14;217758;1256;140710;-68
2023/09/08 06:22:24;;;;;;;17.60;15.70;;;;;;;15.74;86.84;100668.32;218526;1257;141593;-69
2023/09/08 06:27:28;;;;;;;20.50;16.60;;;;;;;16.01;87.00;100665.05;217742;1257;141682;-68
2023/09/08 06:32:31;;;;;;;18.10;16.10;;;;;;;16.29;87.08;100662.64;218548;1257;141205;-70
2023/09/08 06:37:37;;;;;;;16.00;14.40;;;;;;;16.58;87.16;100660.89;217709;1257;141788;-72
2023/09/08 06:42:41;;;;;;;17.60;13.10;;;;;;;16.88;87.14;100663.89;218184;1257;141562;-70
2023/09/08 06:47:45;;;;;;;17.50;12.40;;;;;;;17.23;87.08;100666.83;217661;1257;140743;-74
2023/09/08 06:52:49;;;;;;;13.40;12.00;;;;;;;17.63;86.89;100668.17;217769;1256;141392;-71
2023/09/08 06:57:53;;;;;;;10.70;9.80;;;;;;;18.09;86.53;100671.95;218117;1257;141090;-68
2023/09/08 07:02:56;;;;;;;10.80;9.50;;;;;;;18.83;86.04;100671.98;217794;1260;140312;-72
2023/09/08 07:07:59;;;;;;;9.90;8.90;;;;;;;19.78;85.51;100668.66;218596;1257;140044;-68
2023/09/08 07:13:02;;;;;;;11.30;7.80;;;;;;;20.86;84.45;100671.05;217521;1259;140665;-69
2023/09/08 07:18:05;;;;;;;10.90;7.60;;;;;;;22.34;82.81;100672.52;218041;1259;141146;-72
2023/09/08 07:23:08;;;;;;;13.10;7.60;;;;;;;24.03;81.08;100674.83;218594;1257;139974;-73
2023/09/08 07:28:10;;;;;;;9.60;7.20;;;;;;;25.39;78.46;100678.89;217412;1260;140743;-70
2023/09/08 07:33:14;;;;;;;7.50;6.60;;;;;;;26.22;75.89;100677.47;217559;1257;140377;-73
2023/09/08 07:38:17;;;;;;;8.50;7.20;;;;;;;26.89;73.60;100682.40;218833;1256;139873;-69
2023/09/08 07:43:20;;;;;;;12.60;6.60;;;;;;;27.44;70.85;100679.72;217730;1256;228073;-74
2023/09/08 07:48:23;;;;;;;8.60;6.80;;;;;;;27.88;68.60;100685.96;217998;1257;140358;-73
2023/09/08 07:53:27;;;;;;;6.00;5.50;;;;;;;28.38;67.25;100681.29;217701;1256;140567;-75
2023/09/08 07:58:30;;;;;;;7.80;6.30;;;;;;;28.61;64.93;100682.02;218079;1261;139945;-74
2023/09/08 08:03:34;;;;;;;6.30;5.80;;;;;;;28.70;63.56;100681.06;217660;1262;140232;-72
2023/09/08 08:08:38;;;;;;;7.00;5.50;;;;;;;28.68;62.14;100684.98;217715;1257;139533;-71
2023/09/08 08:13:41;;;;;;;5.70;5.20;;;;;;;28.73;61.26;100680.23;218215;1256;140428;-71
2023/09/08 08:18:44;;;;;;;6.00;5.50;;;;;;;28.71;60.12;100678.90;217681;1260;139478;-73
2023/09/08 08:23:47;;;;;;;8.40;6.20;;;;;;;28.78;59.45;100678.54;217619;1257;140223;-73
2023/09/08 08:28:49;;;;;;;7.70;5.10;;;;;;;28.73;58.18;100682.92;217563;1260;140894;-73
2023/09/08 08:33:52;;;;;;;5.80;4.50;;;;;;;28.69;58.01;100680.27;217562;1261;140425;-74
2023/09/08 08:38:54;;;;;;;6.20;5.10;;;;;;;28.84;57.40;100679.39;218392;1256;140061;-73
2023/09/08 08:43:59;;;;;;;5.50;5.00;;;;;;;28.92;56.62;100675.95;217581;1256;140325;-73
2023/09/08 08:49:04;;;;;;;4.70;4.30;;;;;;;28.94;55.81;100668.65;217683;1256;139336;-76
2023/09/08 08:54:06;;;;;;;6.30;5.00;;;;;;;28.99;55.16;100665.80;217655;1257;139948;-75
2023/09/08 08:59:11;;;;;;;7.20;5.80;;;;;;;29.00;53.81;100663.89;217807;1257;140648;-79
2023/09/08 09:04:19;;;;;;;4.90;3.50;;;;;;;29.11;53.77;100658.63;217832;1256;139726;-85
2023/09/08 09:09:24;;;;;;;5.00;4.60;;;;;;;29.01;51.70;100659.34;217709;1257;140338;-80
2023/09/08 09:14:27;;;;;;;9.10;4.40;;;;;;;28.94;51.79;100655.50;218105;1259;139721;-72
2023/09/08 09:19:31;;;;;;;4.70;4.20;;;;;;;29.06;51.27;100650.13;217837;1257;139579;-74
2023/09/08 09:24:40;;;;;;;6.50;4.10;;;;;;;29.27;50.70;100651.98;218311;1256;139809;-75
2023/09/08 09:29:49;;;;;;;9.00;4.50;;;;;;;29.41;50.34;100649.73;217722;1256;141421;-82
2023/09/08 09:34:54;;;;;;;4.10;3.70;;;;;;;29.46;48.82;100648.54;218115;1260;140435;-75
2023/09/08 09:39:57;;;;;;;3.80;3.50;;;;;;;29.34;47.73;100643.54;217700;1260;139127;-74
2023/09/08 09:45:01;;;;;;;23.70;4.60;;;;;;;29.23;47.29;100643.06;218893;1256;139662;-75
2023/09/08 09:50:04;;;;;;;8.40;4.30;;;;;;;29.04;47.44;100639.94;218365;1257;139488;-73
2023/09/08 09:55:09;;;;;;;4.50;3.80;;;;;;;29.17;46.76;100636.89;218216;1256;140471;-83
2023/09/08 10:00:14;;;;;;;5.70;5.00;;;;;;;29.47;46.65;100629.10;218464;1257;140147;-72
2023/09/08 10:05:18;;;;;;;3.50;3.20;;;;;;;29.78;46.75;100632.34;219376;1256;140197;-73
2023/09/08 10:10:22;;;;;;;5.60;4.30;;;;;;;29.84;46.08;100625.96;218114;1259;140355;-71
2023/09/08 10:15:26;;;;;;;6.00;4.40;;;;;;;29.73;45.13;100623.79;217539;1259;140286;-71
2023/09/08 10:20:31;;;;;;;4.60;4.30;;;;;;;29.72;45.11;100616.43;218261;1261;140692;-73
2023/09/08 10:25:37;;;;;;;4.70;4.10;;;;;;;29.81;44.92;100615.88;217566;1259;139920;-73
2023/09/08 10:30:42;;;;;;;5.00;4.30;;;;;;;30.05;44.97;100615.17;217472;1259;139347;-74
2023/09/08 10:35:46;;;;;;;5.20;4.80;;;;;;;30.18;44.52;100605.48;217888;1258;141421;-70
2023/09/08 10:40:50;;;;;;;7.10;3.90;;;;;;;30.23;44.05;100601.77;217396;1260;140350;-72
2023/09/08 10:45:53;;;;;;;6.50;4.50;;;;;;;30.23;43.84;100598.15;217449;1257;140461;-73
2023/09/08 10:50:57;;;;;;;20.40;12.60;;;;;;;29.82;41.99;100594.81;217839;1257;139824;-72
2023/09/08 10:56:00;;;;;;;;;;;;;;;29.75;42.39;100588.66;217448;1257;561235;-72
2023/09/08 11:01:16;;;;;;;9.30;6.90;;;;;;;29.87;43.18;100588.75;217792;1259;126689;-71
2023/09/08 11:06:23;;;;;;;6.50;5.30;;;;;;;29.89;42.77;100588.36;217652;1257;140631;-74
2023/09/08 11:11:25;;;;;;;4.40;4.00;;;;;;;29.92;42.67;100584.90;217453;1260;141940;-73
2023/09/08 11:16:31;;;;;;;5.80;3.70;;;;;;;29.85;42.37;100587.66;218129;1261;139792;-73
2023/09/08 11:21:35;;;;;;;5.10;4.50;;;;;;;29.93;42.93;100579.59;217425;1260;140081;-72
2023/09/08 11:26:37;;;;;;;4.70;4.20;;;;;;;30.12;42.48;100576.13;219949;1260;140444;-71
2023/09/08 11:31:39;;;;;;;5.10;4.40;;;;;;;30.22;42.09;100574.64;220055;1260;139644;-72
2023/09/08 11:36:41;;;;;;;5.70;4.20;;;;;;;30.31;42.12;100566.88;218477;1257;140342;-76
2023/09/08 11:41:44;;;;;;;7.00;4.20;;;;;;;30.38;42.08;100562.95;217772;1256;140162;-75
2023/09/08 11:46:48;;;;;;;4.20;3.70;;;;;;;30.36;41.89;100560.36;217856;1258;143492;-73
2023/09/08 11:51:52;;;;;;;9.70;4.30;;;;;;;30.28;41.59;100559.35;218638;1256;144089;-72
2023/09/08 11:57:03;;;;;;;5.90;4.30;;;;;;;30.22;41.55;100559.08;217347;1260;139386;-72
2023/09/08 12:02:07;;;;;;;7.10;5.40;;;;;;;30.12;41.30;100550.54;218070;1260;139658;-72
2023/09/08 12:07:16;;;;;;;6.50;4.70;;;;;;;30.17;41.63;100549.02;217669;1260;140022;-71
2023/09/08 12:12:19;;;;;;;4.50;4.10;;;;;;;30.20;41.30;100544.96;218189;1262;141030;-73
2023/09/08 12:17:26;;;;;;;5.10;4.70;;;;;;;30.15;40.81;100542.77;218045;1260;140806;-73
2023/09/08 12:22:33;;;;;;;8.10;5.10;;;;;;;30.25;40.81;100541.33;217522;1262;140566;-73
2023/09/08 12:27:37;;;;;;;6.20;4.60;;;;;;;30.16;40.33;100532.75;217815;1259;139959;-73
2023/09/08 12:32:39;;;;;;;8.50;4.60;;;;;;;30.09;40.54;100523.70;217315;1258;139577;-71
2023/09/08 12:37:41;;;;;;;10.90;4.90;;;;;;;30.00;40.37;100522.50;217638;1258;140491;-75
2023/09/08 12:42:43;;;;;;;5.70;4.50;;;;;;;29.93;40.46;100515.04;217831;1257;140039;-72
2023/09/08 12:48:06;;;;;;;5.70;4.50;;;;;;;29.74;40.88;100509.98;217960;1258;141358;-75
2023/09/08 12:53:09;;;;;;;;;;;;;;;29.68;40.95;100510.80;217515;1257;141026;-73
2023/09/08 12:58:11;;;;;;;8.20;5.00;;;;;;;29.64;40.69;100498.77;218653;1258;126987;-77
2023/09/08 13:03:14;;;;;;;27.20;5.90;;;;;;;29.75;41.38;100499.33;217444;1258;140697;-73
2023/09/08 13:08:16;;;;;;;6.10;4.70;;;;;;;29.80;41.61;100498.94;217652;1260;140297;-74
2023/09/08 13:13:19;;;;;;;8.30;5.20;;;;;;;29.69;41.35;100494.64;217287;1257;140148;-73
2023/09/08 13:18:21;;;;;;;5.30;4.80;;;;;;;29.60;41.03;100488.66;217450;1257;140333;-72
2023/09/08 13:23:23;;;;;;;5.20;4.30;;;;;;;29.62;41.45;100484.46;217590;1257;140411;-72
2023/09/08 13:28:25;;;;;;;5.60;5.00;;;;;;;29.65;41.70;100483.29;217588;1257;139854;-72
2023/09/08 13:33:27;;;;;;;6.30;5.10;;;;;;;29.66;41.50;100477.30;217727;1256;140093;-73
2023/09/08 13:38:30;;;;;;;7.40;5.20;;;;;;;29.61;40.92;100470.23;217703;1260;140305;-73
2023/09/08 13:43:32;;;;;;;5.80;5.30;;;;;;;29.46;40.91;100469.66;217785;1258;141750;-73
2023/09/08 13:48:35;;;;;;;6.20;4.70;;;;;;;29.24;40.56;100467.36;218511;1257;140423;-77
2023/09/08 13:53:39;;;;;;;10.50;5.10;;;;;;;29.08;40.94;100460.34;218006;1257;140109;-76
2023/09/08 13:58:49;;;;;;;11.70;6.00;;;;;;;28.93;40.42;100455.02;217696;1257;141160;-74
2023/09/08 14:04:00;;;;;;;6.60;6.00;;;;;;;28.86;40.45;100452.42;218697;1257;140571;-74
2023/09/08 14:09:12;;;;;;;10.60;6.10;;;;;;;28.81;40.93;100451.77;217841;1260;141894;-74
2023/09/08 14:14:19;;;;;;;9.10;5.90;;;;;;;28.82;41.53;100454.48;217823;1257;140331;-74
2023/09/08 14:19:22;;;;;;;7.30;5.40;;;;;;;28.89;41.61;100451.10;217659;1260;139370;-74
2023/09/08 14:24:25;;;;;;;4.30;3.90;;;;;;;28.81;41.09;100446.52;217739;1257;140445;-72
2023/09/08 14:29:29;;;;;;;5.40;4.90;;;;;;;28.57;40.70;100446.20;217912;1260;139707;-73
2023/09/08 14:34:32;;;;;;;5.40;4.90;;;;;;;28.49;41.68;100439.89;217671;1257;140619;-72
2023/09/08 14:39:35;;;;;;;5.50;5.00;;;;;;;28.45;41.81;100439.06;217727;1260;141020;-73
2023/09/08 14:44:37;;;;;;;6.50;5.00;;;;;;;28.40;42.17;100432.77;217673;1257;140914;-77
2023/09/08 14:49:40;;;;;;;12.40;4.90;;;;;;;28.32;42.34;100426.13;217534;1256;140609;-74
2023/09/08 14:54:44;;;;;;;5.60;5.20;;;;;;;28.25;41.80;100420.23;217425;1257;139496;-73
2023/09/08 14:59:46;;;;;;;5.10;4.70;;;;;;;28.15;42.05;100415.21;217535;1260;140198;-75
2023/09/08 15:04:49;;;;;;;7.00;6.00;;;;;;;28.03;42.03;100411.55;217570;1260;139983;-74
2023/09/08 15:09:53;;;;;;;5.20;4.80;;;;;;;27.89;42.27;100405.38;218098;1256;139469;-75
2023/09/08 15:14:57;;;;;;;8.50;6.50;;;;;;;27.84;42.77;100402.80;218369;1257;140442;-78
2023/09/08 15:20:01;;;;;;;13.30;6.30;;;;;;;27.75;43.44;100399.23;217756;1257;140540;-77
2023/09/08 15:25:06;;;;;;;;;;;;;;;27.68;43.61;100399.60;219487;1257;140461;-78
2023/09/08 15:30:13;;;;;;;7.50;5.00;;;;;;;27.57;43.53;100396.27;218821;1260;146383;-74
2023/09/08 15:35:17;;;;;;;7.90;5.30;;;;;;;27.50;44.65;100397.23;217680;1258;140584;-77
2023/09/08 15:40:20;;;;;;;7.80;6.10;;;;;;;27.38;45.38;100395.03;217673;1257;140605;-75
2023/09/08 15:45:23;;;;;;;7.00;6.00;;;;;;;27.21;45.75;100397.14;217586;1256;139692;-78
2023/09/08 15:50:26;;;;;;;11.40;7.60;;;;;;;27.01;46.20;100394.88;217781;1260;139787;-76
2023/09/08 15:55:29;;;;;;;11.40;7.80;;;;;;;26.79;46.92;100393.63;217727;1257;140005;-75
2023/09/08 16:00:32;;;;;;;7.30;6.60;;;;;;;26.58;47.53;100387.67;218375;1258;139788;-76
2023/09/08 16:05:34;;;;;;;8.00;6.20;;;;;;;26.38;48.35;100386.67;218016;1257;141219;-78
2023/09/08 16:10:37;;;;;;;9.10;6.10;;;;;;;26.17;48.99;100382.64;218563;1256;140011;-77
2023/09/08 16:15:39;;;;;;;7.10;6.40;;;;;;;25.94;49.45;100380.84;217918;1257;140538;-77
2023/09/08 16:20:41;;;;;;;6.30;5.10;;;;;;;25.69;49.91;100377.04;217752;1257;140526;-78
2023/09/08 16:25:44;;;;;;;6.40;5.70;;;;;;;25.43;50.62;100371.13;217898;1260;139791;-77
2023/09/08 16:30:46;;;;;;;6.00;5.50;;;;;;;25.17;51.39;100373.16;218434;1257;141097;-82
2023/09/08 16:35:53;;;;;;;42.50;6.80;;;;;;;24.92;52.30;100373.56;217905;1256;139950;-78
2023/09/08 16:40:58;;;;;;;83.00;10.50;;;;;;;24.67;52.94;100371.90;217723;1257;139915;-78
2023/09/08 16:46:02;;;;;;;37.70;7.90;;;;;;;24.41;53.40;100366.23;217910;1260;140886;-79
2023/09/08 16:51:04;;;;;;;80.90;11.90;;;;;;;24.15;54.03;100369.05;217430;1256;140726;-79
2023/09/08 16:56:08;;;;;;;8.00;5.90;;;;;;;23.90;54.40;100369.59;217470;1259;140563;-79
2023/09/08 17:01:11;;;;;;;8.70;5.40;;;;;;;23.62;54.71;100369.76;217542;1257;140202;-78
2023/09/08 17:06:15;;;;;;;6.30;5.30;;;;;;;23.36;55.26;100372.15;217573;1260;140956;-74
2023/09/08 17:11:18;;;;;;;6.30;5.50;;;;;;;22.99;56.10;100369.76;218665;1260;139937;-77
2023/09/08 17:16:21;;;;;;;6.70;5.40;;;;;;;22.57;56.93;100373.00;217527;1257;140043;-76
2023/09/08 17:21:24;;;;;;;7.20;6.50;;;;;;;22.20;57.75;100371.53;217229;1256;140410;-73
2023/09/08 17:26:26;;;;;;;7.00;6.40;;;;;;;21.76;58.23;100376.28;220089;1256;140129;-81
2023/09/08 17:31:30;;;;;;;6.80;6.10;;;;;;;21.36;58.72;100377.86;220396;1256;139604;-77
2023/09/08 17:36:34;;;;;;;6.70;5.70;;;;;;;21.09;59.42;100384.61;219354;1256;140757;-77
2023/09/08 17:41:37;;;;;;;6.00;5.40;;;;;;;20.90;59.88;100383.62;217757;1257;139671;-79
2023/09/08 17:46:40;;;;;;;7.00;6.30;;;;;;;20.69;60.27;100385.73;219629;1256;142816;-76
2023/09/08 17:51:42;;;;;;;8.40;6.10;;;;;;;20.61;60.72;100388.09;218043;1256;141771;-79
2023/09/08 17:56:45;;;;;;;7.40;6.80;;;;;;;20.39;60.83;100389.27;218802;1256;140251;-77
2023/09/08 18:01:49;;;;;;;25.30;12.00;;;;;;;20.08;61.21;100388.75;217745;1260;141641;-77
2023/09/08 18:06:52;;;;;;;22.20;10.30;;;;;;;19.92;62.13;100399.85;217837;1260;141356;-78
2023/09/08 18:11:55;;;;;;;33.40;10.10;;;;;;;19.81;62.53;100397.65;218715;1256;143067;-79
2023/09/08 18:16:57;;;;;;;17.90;7.80;;;;;;;19.59;62.98;100390.25;217630;1257;140346;-79
2023/09/08 18:22:00;;;;;;;16.10;8.20;;;;;;;19.40;63.39;100388.63;217472;1260;141208;-77
2023/09/08 18:27:03;;;;;;;20.70;8.30;;;;;;;19.12;63.85;100380.68;217270;1257;140392;-75
2023/09/08 18:32:06;;;;;;;14.00;8.30;;;;;;;18.95;64.51;100381.44;217414;1260;141503;-84
2023/09/08 18:37:09;;;;;;;15.10;9.20;;;;;;;18.78;64.79;100380.22;217694;1260;142233;-79
2023/09/08 18:42:12;;;;;;;22.30;9.40;;;;;;;18.54;65.05;100379.02;217946;1257;141891;-79
2023/09/08 18:47:16;;;;;;;23.30;10.30;;;;;;;18.41;65.92;100382.66;218102;1256;141875;-76
2023/09/08 18:52:19;;;;;;;24.80;13.10;;;;;;;18.36;66.02;100386.02;217604;1260;140849;-75
2023/09/08 18:57:25;;;;;;;22.90;12.90;;;;;;;18.21;66.29;100384.66;218534;1256;141745;-75
2023/09/08 19:02:27;;;;;;;30.70;13.10;;;;;;;18.06;66.83;100386.54;218542;1257;141103;-74
2023/09/08 19:07:31;;;;;;;30.30;12.50;;;;;;;18.00;67.06;100385.85;219862;1256;141651;-74
2023/09/08 19:12:34;;;;;;;19.60;10.60;;;;;;;17.87;67.25;100381.66;220324;1256;140822;-74
2023/09/08 19:17:40;;;;;;;21.40;10.50;;;;;;;17.82;67.40;100382.23;218310;1256;140852;-72
2023/09/08 19:22:44;;;;;;;25.40;10.80;;;;;;;17.69;67.45;100384.36;220539;1256;140610;-76
2023/09/08 19:27:48;;;;;;;24.70;11.40;;;;;;;17.59;67.72;100380.80;220289;1256;141016;-78
2023/09/08 19:32:51;;;;;;;22.60;12.60;;;;;;;17.53;67.88;100382.98;217858;1257;140616;-77
2023/09/08 19:37:56;;;;;;;17.60;8.90;;;;;;;17.41;68.04;100388.13;218872;1257;141561;-75
2023/09/08 19:43:01;;;;;;;21.70;10.40;;;;;;;17.26;68.15;100387.26;218686;1259;140862;-72
2023/09/08 19:48:06;;;;;;;19.30;10.20;;;;;;;17.12;68.46;100384.61;218611;1256;140507;-74
2023/09/08 19:53:08;;;;;;;18.40;9.60;;;;;;;17.02;68.91;100379.83;218188;1260;140619;-76
2023/09/08 19:58:11;;;;;;;13.40;8.50;;;;;;;16.90;69.08;100379.10;218057;1256;140537;-76
2023/09/08 20:03:13;;;;;;;15.80;9.50;;;;;;;16.78;69.43;100380.44;217706;1257;141575;-78
2023/09/08 20:08:16;;;;;;;17.10;10.10;;;;;;;16.63;69.65;100378.48;217990;1256;141668;-73
2023/09/08 20:13:19;;;;;;;12.90;9.30;;;;;;;16.54;70.38;100376.30;217741;1257;221958;-76
2023/09/08 20:18:22;;;;;;;20.30;10.90;;;;;;;16.51;70.45;100373.44;217728;1260;140447;-76
2023/09/08 20:23:25;;;;;;;20.20;10.80;;;;;;;16.45;70.66;100372.05;218037;1260;140491;-76
2023/09/08 20:28:31;;;;;;;28.40;11.80;;;;;;;16.38;70.82;100370.02;217411;1256;141000;-73
2023/09/08 20:33:36;;;;;;;17.00;9.60;;;;;;;16.34;71.06;100372.39;217460;1256;143448;-73
2023/09/08 20:38:42;;;;;;;19.60;9.60;;;;;;;16.27;70.96;100375.66;218407;1256;140130;-71
2023/09/08 20:43:46;;;;;;;22.10;9.50;;;;;;;16.21;71.09;100379.81;218322;1257;141066;-71
2023/09/08 20:48:52;;;;;;;19.10;10.70;;;;;;;16.11;71.15;100377.68;217563;1260;141394;-70
2023/09/08 20:53:57;;;;;;;13.30;9.70;;;;;;;15.99;71.32;100378.85;218317;1256;140713;-71
2023/09/08 20:59:03;;;;;;;18.30;10.80;;;;;;;15.94;71.55;100380.25;218001;1259;140340;-71
2023/09/08 21:04:08;;;;;;;17.10;10.40;;;;;;;15.88;71.79;100377.20;217987;1260;140295;-77
2023/09/08 21:09:13;;;;;;;17.50;10.40;;;;;;;15.83;71.96;100380.97;218679;1256;141092;-74
2023/09/08 21:14:17;;;;;;;14.90;11.60;;;;;;;15.66;72.09;100385.23;218961;1257;140594;-78
2023/09/08 21:19:23;;;;;;;19.60;11.50;;;;;;;15.52;72.61;100380.23;217686;1260;140465;-73
2023/09/08 21:24:26;;;;;;;14.80;9.20;;;;;;;15.42;72.89;100377.69;219070;1256;142018;-72
2023/09/08 21:29:29;;;;;;;14.90;10.40;;;;;;;15.31;73.05;100374.65;217948;1256;142349;-74
2023/09/08 21:34:32;;;;;;;13.40;9.70;;;;;;;15.21;73.37;100367.13;218913;1256;141260;-72
2023/09/08 21:39:36;;;;;;;11.30;9.60;;;;;;;15.11;73.70;100366.08;218568;1256;142349;-76
2023/09/08 21:44:39;;;;;;;13.50;10.00;;;;;;;15.02;73.86;100370.84;218080;1256;140279;-80
2023/09/08 21:49:41;;;;;;;11.80;9.90;;;;;;;14.95;74.26;100370.91;218562;1259;142624;-76
2023/09/08 21:54:47;;;;;;;19.10;10.90;;;;;;;14.83;74.57;100369.89;218254;1256;140126;-75
2023/09/08 21:59:50;;;;;;;13.90;11.70;;;;;;;14.79;74.80;100364.56;217661;1260;141544;-68
2023/09/08 22:04:53;;;;;;;15.40;12.60;;;;;;;14.72;75.16;100366.23;217543;1259;140859;-82
2023/09/08 22:09:56;;;;;;;13.50;11.00;;;;;;;14.64;75.59;100362.60;217923;1260;140239;-74
2023/09/08 22:14:59;;;;;;;11.90;10.70;;;;;;;14.63;75.65;100364.34;217915;1259;141537;-77
2023/09/08 22:20:16;;;;;;;12.10;10.60;;;;;;;14.56;75.51;100366.86;218411;1256;141473;-73
2023/09/08 22:25:19;;;;;;;16.70;11.80;;;;;;;14.45;75.80;100363.73;217452;1256;143033;-70
2023/09/08 22:30:23;;;;;;;16.70;10.50;;;;;;;14.39;75.80;100362.61;217943;1257;140896;-69
2023/09/08 22:35:27;;;;;;;12.50;11.10;;;;;;;14.31;75.85;100361.47;217767;1256;141307;-73
2023/09/08 22:40:31;;;;;;;13.00;11.70;;;;;;;14.30;76.03;100359.52;217670;1257;140895;-73
2023/09/08 22:45:36;;;;;;;16.90;10.90;;;;;;;14.29;76.04;100361.43;217240;1257;140931;-73